Time;durP1;ratioP1;P1;durP2;ratioP2;P2;SDS_P1;SDS_P2;PMS_P1;PMS_P2;Temp;Humidity;BMP_temperature;BMP_pressure;BME280_temperature;BME280_humidity;BME280_pressure;Samples;Min_cycle;Max_cycle;Signal;HPM_P1;HPM_P2
2021/01/30 00:00:53;;;;;;;0.90;0.80;;;;;;;7.37;80.28;94188.84;5033894;28;20217;-78
2021/01/30 00:03:19;;;;;;;0.70;0.70;;;;;;;7.41;80.61;94187.50;5034003;28;20345;-78
2021/01/30 00:05:45;;;;;;;1.17;0.90;;;;;;;7.45;80.20;94186.13;5034131;28;20190;-77
2021/01/30 00:08:14;;;;;;;1.00;0.80;;;;;;;7.31;81.99;94188.84;5033823;28;20194;-78
2021/01/30 00:10:40;;;;;;;0.60;0.60;;;;;;;7.36;82.72;94189.81;5033174;28;20660;-78
2021/01/30 00:13:10;;;;;;;1.13;0.80;;;;;;;7.36;82.19;94191.59;5034068;28;20202;-78
2021/01/30 00:15:36;;;;;;;0.90;0.83;;;;;;;7.35;83.02;94192.56;5033853;28;20225;-77
2021/01/30 00:18:03;;;;;;;2.27;0.80;;;;;;;7.46;82.89;94185.16;5033498;28;20195;-77
2021/01/30 00:20:31;;;;;;;1.40;0.70;;;;;;;7.45;82.89;94182.78;5033491;28;20214;-78
2021/01/30 00:22:58;;;;;;;1.20;0.90;;;;;;;7.43;83.46;94184.75;5033840;28;20210;-79
2021/01/30 00:25:27;;;;;;;0.80;0.80;;;;;;;7.44;83.38;94183.75;5033460;28;20190;-78
2021/01/30 00:27:54;;;;;;;1.20;0.80;;;;;;;7.34;83.65;94183.31;5033431;28;20882;-78
2021/01/30 00:30:22;;;;;;;0.80;0.80;;;;;;;7.36;83.38;94187.25;5033526;28;20214;-80
2021/01/30 00:32:49;;;;;;;1.50;1.00;;;;;;;7.43;83.08;94188.09;5033946;28;20608;-77
2021/01/30 00:35:18;;;;;;;0.80;0.80;;;;;;;7.54;82.79;94191.84;5033008;28;20198;-78
2021/01/30 00:37:44;;;;;;;0.80;0.80;;;;;;;7.50;81.79;94196.59;5032591;28;20198;-78
2021/01/30 00:40:11;;;;;;;1.53;0.97;;;;;;;7.50;82.05;94186.34;5032628;28;20224;-78
2021/01/30 00:42:37;;;;;;;0.90;0.70;;;;;;;7.56;81.92;94197.59;5033929;28;20233;-78
2021/01/30 00:45:05;;;;;;;0.70;0.70;;;;;;;7.51;82.19;94195.59;5033261;28;20206;-79
2021/01/30 00:47:32;;;;;;;0.80;0.80;;;;;;;7.56;81.54;94197.59;5033189;28;20225;-78
2021/01/30 00:49:58;;;;;;;0.70;0.70;;;;;;;7.60;82.06;94191.88;5032836;28;20234;-78
2021/01/30 00:52:24;;;;;;;1.13;1.00;;;;;;;7.57;83.24;94206.84;5032879;28;20213;-78
2021/01/30 00:54:51;;;;;;;1.03;0.70;;;;;;;7.52;84.21;94204.84;5033497;28;20242;-78
2021/01/30 00:57:17;;;;;;;0.93;0.80;;;;;;;7.57;84.33;94207.63;5033219;28;20195;-78
2021/01/30 00:59:43;;;;;;;1.87;0.97;;;;;;;7.61;83.90;94197.81;5032633;28;20218;-78
2021/01/30 01:02:09;;;;;;;1.00;0.83;;;;;;;7.59;83.54;94207.44;5033135;28;20261;-78
2021/01/30 01:04:36;;;;;;;1.57;0.70;;;;;;;7.52;84.02;94211.75;5032795;28;20921;-78
2021/01/30 01:07:02;;;;;;;0.80;0.70;;;;;;;7.59;83.77;94208.25;5033237;28;20202;-78
2021/01/30 01:09:27;;;;;;;1.40;0.90;;;;;;;7.54;84.83;94215.69;5032408;28;20205;-78
2021/01/30 01:11:53;;;;;;;1.07;0.90;;;;;;;7.52;85.97;94212.53;5033105;28;20202;-77
2021/01/30 01:14:21;;;;;;;1.17;0.90;;;;;;;7.49;86.23;94219.84;5032760;28;20198;-77
2021/01/30 01:16:47;;;;;;;1.40;0.90;;;;;;;7.49;87.31;94224.94;5032523;28;20194;-78
2021/01/30 01:19:14;;;;;;;1.50;1.00;;;;;;;7.44;87.72;94222.16;5032579;28;20257;-80
2021/01/30 01:21:41;;;;;;;0.77;0.77;;;;;;;7.44;87.00;94230.63;5030853;28;20241;-77
2021/01/30 01:24:08;;;;;;;0.80;0.80;;;;;;;7.47;86.55;94226.91;5032462;28;20202;-76
2021/01/30 01:26:34;;;;;;;2.27;0.90;;;;;;;7.41;85.97;94228.44;5032065;28;20286;-77
2021/01/30 01:29:00;;;;;;;0.80;0.80;;;;;;;7.39;86.39;94227.06;5032085;28;20190;-79
2021/01/30 01:31:26;;;;;;;1.03;0.90;;;;;;;7.42;86.10;94242.03;5031879;28;20323;-78
2021/01/30 01:33:52;;;;;;;1.53;0.80;;;;;;;7.37;84.52;94244.38;5031650;28;20568;-77
2021/01/30 01:36:21;;;;;;;1.00;0.80;;;;;;;7.48;84.14;94234.41;5031966;28;20202;-77
2021/01/30 01:38:49;;;;;;;1.00;0.90;;;;;;;7.57;83.08;94233.25;5031845;28;20217;-78
2021/01/30 01:41:15;;;;;;;1.70;0.90;;;;;;;7.49;82.24;94217.28;5031383;28;20731;-79
2021/01/30 01:43:41;;;;;;;1.30;0.97;;;;;;;7.55;81.60;94240.31;5032153;28;20198;-78
2021/01/30 01:46:21;;;;;;;0.90;0.90;;;;;;;7.48;81.60;94244.66;5032652;28;20209;-78
2021/01/30 01:48:52;;;;;;;0.80;0.80;;;;;;;7.53;81.30;94242.28;5032706;28;20265;-76
2021/01/30 01:51:26;;;;;;;0.80;0.80;;;;;;;7.54;80.47;94249.00;5032753;28;20217;-78
2021/01/30 01:53:54;;;;;;;1.53;0.90;;;;;;;7.60;80.75;94255.91;5012625;28;20206;-78
2021/01/30 01:56:24;;;;;;;1.73;0.80;;;;;;;7.53;80.88;94255.09;5012662;28;20202;-78
2021/01/30 01:58:53;;;;;;;1.63;1.00;;;;;;;7.51;81.01;94246.81;5012210;28;20222;-77
2021/01/30 02:01:20;;;;;;;0.87;0.80;;;;;;;7.51;80.46;94246.00;5012139;28;20223;-78
2021/01/30 02:03:52;;;;;;;1.00;0.90;;;;;;;7.48;81.32;94254.09;5032066;28;20190;-80
2021/01/30 02:06:19;;;;;;;0.63;0.63;;;;;;;7.43;81.55;94257.22;5031613;28;20198;-79
2021/01/30 02:08:46;;;;;;;2.20;0.90;;;;;;;7.50;80.60;94252.16;5031731;28;20198;-76
2021/01/30 02:11:14;;;;;;;0.70;0.70;;;;;;;7.49;80.45;94251.34;5031737;28;20218;-79
2021/01/30 02:13:46;;;;;;;0.77;0.60;;;;;;;7.51;80.54;94254.47;5012320;28;20203;-78
2021/01/30 02:16:23;;;;;;;0.97;0.80;;;;;;;7.51;81.73;94263.94;5012958;28;20206;-78
2021/01/30 02:19:04;;;;;;;1.77;0.80;;;;;;;7.61;82.44;94270.31;5031703;28;20221;-81
2021/01/30 02:22:04;;;;;;;0.70;0.70;;;;;;;7.62;83.05;94266.75;5031139;28;20225;-77
2021/01/30 02:25:08;;;;;;;1.47;0.80;;;;;;;7.61;83.04;94251.59;5031758;28;20649;-78
2021/01/30 02:27:59;;;;;;;0.77;0.77;;;;;;;7.35;82.09;94259.13;5005639;28;20201;-77
2021/01/30 02:30:54;;;;;;;0.77;0.77;;;;;;;7.30;81.97;94251.25;5030262;28;20682;-77
2021/01/30 02:33:48;;;;;;;1.03;0.73;;;;;;;7.41;81.49;94259.19;5031111;28;20241;-78
2021/01/30 02:36:37;;;;;;;1.50;0.80;;;;;;;7.41;80.98;94260.94;5030951;28;20202;-78
2021/01/30 02:39:12;;;;;;;0.60;0.60;;;;;;;7.43;80.09;94270.03;5031328;28;20229;-79
2021/01/30 02:41:41;;;;;;;0.90;0.70;;;;;;;7.55;79.47;94272.81;5031004;28;20218;-78
2021/01/30 02:44:11;;;;;;;0.70;0.70;;;;;;;7.47;78.73;94267.88;5031289;28;20260;-77
2021/01/30 02:46:41;;;;;;;1.30;0.60;;;;;;;7.40;77.94;94275.53;5030913;28;20209;-78
2021/01/30 02:49:12;;;;;;;0.67;0.67;;;;;;;7.44;77.71;94268.25;5030974;28;20199;-78
2021/01/30 02:51:46;;;;;;;1.60;0.80;;;;;;;7.52;77.21;94265.53;5030421;28;20272;-78
2021/01/30 02:54:13;;;;;;;0.80;0.80;;;;;;;7.49;76.96;94261.59;5030913;28;20205;-77
2021/01/30 02:56:40;;;;;;;1.30;0.80;;;;;;;7.48;77.56;94260.00;5011563;28;20662;-78
2021/01/30 02:59:08;;;;;;;0.50;0.50;;;;;;;7.49;77.41;94274.41;5011815;28;20223;-78
2021/01/30 03:01:36;;;;;;;0.60;0.60;;;;;;;7.48;77.86;94269.47;5033782;28;20217;-77
2021/01/30 03:04:05;;;;;;;0.60;0.60;;;;;;;7.53;77.52;94275.56;5034991;28;20202;-77
2021/01/30 03:06:37;;;;;;;0.60;0.60;;;;;;;7.56;77.37;94272.63;5034474;28;20810;-78
2021/01/30 03:09:12;;;;;;;0.57;0.57;;;;;;;7.57;77.35;94268.31;5035139;28;20210;-78
2021/01/30 03:11:43;;;;;;;0.77;0.77;;;;;;;7.52;77.56;94270.63;5034465;28;20225;-80
2021/01/30 03:14:17;;;;;;;0.60;0.60;;;;;;;7.49;78.36;94271.03;5035001;28;20213;-79
2021/01/30 03:16:44;;;;;;;0.70;0.70;;;;;;;7.40;78.34;94267.03;5034548;28;20612;-79
2021/01/30 03:19:16;;;;;;;0.67;0.67;;;;;;;7.36;78.93;94264.06;5034934;28;20229;-76
2021/01/30 03:21:43;;;;;;;0.70;0.70;;;;;;;7.35;79.06;94266.81;5034091;28;20214;-78
2021/01/30 03:24:10;;;;;;;1.13;0.70;;;;;;;7.29;79.61;94268.38;5034879;28;20205;-78
2021/01/30 03:26:40;;;;;;;3.00;1.00;;;;;;;7.35;79.11;94256.56;5034389;28;20201;-77
2021/01/30 03:29:06;;;;;;;0.83;0.70;;;;;;;7.37;79.01;94257.97;5034469;28;20202;-78
2021/01/30 03:31:32;;;;;;;1.00;0.90;;;;;;;7.45;78.67;94260.38;5033762;28;20229;-78
2021/01/30 03:33:58;;;;;;;0.73;0.60;;;;;;;7.46;78.02;94264.53;5034311;28;20206;-78
2021/01/30 03:36:24;;;;;;;0.73;0.67;;;;;;;7.45;77.87;94252.69;5034021;28;20205;-78
2021/01/30 03:38:50;;;;;;;1.00;0.80;;;;;;;7.36;78.53;94253.81;5034376;28;20609;-78
2021/01/30 03:41:16;;;;;;;1.37;0.77;;;;;;;7.39;78.48;94256.00;5033220;28;20707;-77
2021/01/30 03:43:42;;;;;;;0.90;0.70;;;;;;;7.42;78.60;94258.19;5033723;28;20790;-77
2021/01/30 03:46:08;;;;;;;1.27;0.80;;;;;;;7.34;78.33;94265.22;5033567;28;20198;-77
2021/01/30 03:48:34;;;;;;;1.20;0.80;;;;;;;7.27;79.10;94266.00;5033329;28;20238;-78
2021/01/30 03:51:00;;;;;;;0.90;0.77;;;;;;;7.36;78.30;94260.72;5032899;28;20213;-78
2021/01/30 03:53:26;;;;;;;1.43;0.90;;;;;;;7.37;78.19;94262.31;5033623;28;20206;-78
2021/01/30 03:55:52;;;;;;;1.60;0.80;;;;;;;7.45;77.91;94260.38;5032866;28;20202;-78
2021/01/30 03:58:19;;;;;;;1.70;0.70;;;;;;;7.36;78.28;94268.41;5033865;28;20755;-77
2021/01/30 04:00:44;;;;;;;0.80;0.80;;;;;;;7.39;78.16;94268.81;5032991;28;20582;-77
2021/01/30 04:03:10;;;;;;;2.50;0.80;;;;;;;7.36;78.10;94256.38;5033557;28;20203;-78
2021/01/30 04:05:38;;;;;;;0.90;0.90;;;;;;;7.43;78.04;94271.78;5033486;28;20198;-78
2021/01/30 04:08:05;;;;;;;1.70;0.90;;;;;;;7.39;78.46;94281.63;5033309;28;20202;-77
2021/01/30 04:10:33;;;;;;;0.73;0.70;;;;;;;7.44;78.38;94278.50;5032418;28;20229;-79
2021/01/30 04:13:03;;;;;;;0.83;0.83;;;;;;;7.39;78.08;94275.69;5033378;28;20213;-76
2021/01/30 04:15:32;;;;;;;1.27;0.80;;;;;;;7.44;78.08;94269.03;5032914;28;20277;-76
2021/01/30 04:17:59;;;;;;;1.93;0.80;;;;;;;7.46;77.82;94267.09;5033251;28;20199;-78
2021/01/30 04:20:25;;;;;;;1.57;0.73;;;;;;;7.42;77.75;94260.75;5032216;28;20222;-78
2021/01/30 04:22:51;;;;;;;0.73;0.73;;;;;;;7.35;77.20;94249.69;5032468;28;20202;-78
2021/01/30 04:25:20;;;;;;;0.70;0.70;;;;;;;7.35;76.88;94252.25;5033205;28;20205;-78
2021/01/30 04:27:46;;;;;;;0.73;0.70;;;;;;;7.39;77.06;94260.34;5033207;28;20213;-76
2021/01/30 04:30:14;;;;;;;1.03;0.83;;;;;;;7.33;76.63;94248.28;5032384;28;20218;-77
2021/01/30 04:32:41;;;;;;;2.37;0.90;;;;;;;7.41;75.92;94251.50;5032574;28;20290;-77
2021/01/30 04:35:08;;;;;;;2.43;0.80;;;;;;;7.33;75.73;94246.53;5032719;28;20194;-77
2021/01/30 04:37:34;;;;;;;2.37;0.90;;;;;;;7.33;75.41;94251.63;5032240;28;20202;-76
2021/01/30 04:40:00;;;;;;;2.27;1.00;;;;;;;7.31;75.08;94243.38;5032541;28;20257;-76
2021/01/30 04:42:34;;;;;;;1.77;0.80;;;;;;;7.27;75.07;94247.28;5032676;28;20198;-78
2021/01/30 04:45:05;;;;;;;1.40;0.93;;;;;;;7.30;74.84;94249.47;5032829;28;20213;-77
2021/01/30 04:47:47;;;;;;;1.93;0.93;;;;;;;7.34;74.34;94245.53;5033177;28;20201;-77
2021/01/30 04:50:23;;;;;;;1.43;0.83;;;;;;;7.29;74.20;94245.34;5013193;28;20227;-77
2021/01/30 04:52:58;;;;;;;2.27;1.13;;;;;;;7.32;73.45;94239.03;5014883;28;20206;-77
2021/01/30 04:55:43;;;;;;;1.93;1.07;;;;;;;7.27;73.68;94227.59;5032573;28;20260;-76
2021/01/30 04:58:15;;;;;;;1.40;1.03;;;;;;;7.28;73.40;94233.53;5032810;28;20653;-76
2021/01/30 05:01:01;;;;;;;2.53;1.23;;;;;;;7.28;73.37;94239.44;5031943;28;20210;-76
2021/01/30 05:03:49;;;;;;;2.23;1.10;;;;;;;7.29;73.19;94229.97;5031520;28;20225;-79
2021/01/30 05:06:21;;;;;;;2.73;1.20;;;;;;;7.27;72.94;94227.59;5031742;28;20663;-76
2021/01/30 05:08:55;;;;;;;2.60;1.00;;;;;;;7.28;72.92;94233.53;5032197;28;20194;-77
2021/01/30 05:11:24;;;;;;;2.97;1.07;;;;;;;7.36;72.80;94235.13;5032111;28;20651;-78
2021/01/30 05:13:55;;;;;;;2.73;1.27;;;;;;;7.20;72.60;94233.66;5032338;28;20202;-77
2021/01/30 05:16:26;;;;;;;1.93;1.10;;;;;;;7.28;72.59;94244.56;5031694;28;20206;-80
2021/01/30 05:18:59;;;;;;;4.47;1.67;;;;;;;7.24;73.09;94232.31;5032053;28;20592;-79
2021/01/30 05:21:37;;;;;;;2.97;1.00;;;;;;;7.20;74.32;94237.00;5031368;28;20901;-76
2021/01/30 05:24:04;;;;;;;3.37;1.20;;;;;;;7.20;75.73;94243.91;5031815;28;20241;-76
2021/01/30 05:26:40;;;;;;;4.20;1.10;;;;;;;7.25;76.08;94237.25;5031665;28;20740;-78
2021/01/30 05:29:11;;;;;;;2.70;1.00;;;;;;;7.26;75.36;94223.47;5031313;28;20677;-77
2021/01/30 05:31:46;;;;;;;2.37;1.50;;;;;;;7.14;75.73;94222.41;5031105;28;20233;-76
2021/01/30 05:34:14;;;;;;;2.33;1.10;;;;;;;7.21;75.86;94217.31;5032053;28;20202;-77
2021/01/30 05:36:48;;;;;;;1.93;1.03;;;;;;;7.20;75.48;94213.19;5031356;28;20613;-77
2021/01/30 05:39:27;;;;;;;4.40;1.47;;;;;;;7.13;75.80;94208.03;5031653;28;20214;-77
2021/01/30 05:42:02;;;;;;;1.10;0.90;;;;;;;7.19;75.96;94199.59;5031143;28;20197;-76
2021/01/30 05:44:38;;;;;;;4.93;1.20;;;;;;;7.09;76.59;94198.38;5031188;28;20729;-77
2021/01/30 05:47:05;;;;;;;3.17;1.40;;;;;;;7.07;76.82;94200.31;5030766;28;20213;-76
2021/01/30 05:49:40;;;;;;;2.63;1.13;;;;;;;7.16;76.63;94188.94;5030918;28;20199;-78
2021/01/30 05:52:15;;;;;;;2.40;1.00;;;;;;;7.19;76.11;94193.69;5030618;28;20209;-78
2021/01/30 05:54:41;;;;;;;3.37;1.50;;;;;;;7.09;76.78;94190.69;5031578;28;20209;-77
2021/01/30 05:57:06;;;;;;;2.77;1.00;;;;;;;7.04;76.90;94180.22;5031603;28;20198;-76
2021/01/30 05:59:34;;;;;;;4.33;1.23;;;;;;;7.06;76.59;94160.38;5031316;28;20237;-77
2021/01/30 06:02:11;;;;;;;4.50;1.23;;;;;;;7.09;76.03;94178.69;5030908;28;20198;-76
2021/01/30 06:04:38;;;;;;;1.70;1.03;;;;;;;7.07;75.86;94178.09;5011872;28;20238;-79
2021/01/30 06:07:06;;;;;;;1.50;1.00;;;;;;;7.07;76.03;94175.53;5026799;28;20202;-79
2021/01/30 06:09:35;;;;;;;4.27;1.37;;;;;;;7.05;76.74;94185.16;5030824;28;20249;-80
2021/01/30 06:12:02;;;;;;;4.30;1.23;;;;;;;7.04;76.71;94191.25;5030844;28;20763;-77
2021/01/30 06:14:36;;;;;;;2.07;1.20;;;;;;;7.03;76.77;94194.78;5030922;28;20195;-76
2021/01/30 06:17:14;;;;;;;2.03;0.93;;;;;;;7.08;77.03;94195.03;5031328;28;20604;-75
2021/01/30 06:19:41;;;;;;;1.70;1.00;;;;;;;7.12;76.61;94196.19;5031349;28;20222;-76
2021/01/30 06:22:11;;;;;;;4.93;1.30;;;;;;;7.12;76.31;94192.88;5030247;28;20970;-78
2021/01/30 06:24:44;;;;;;;2.47;1.10;;;;;;;7.17;76.17;94200.75;5029956;28;20193;-78
2021/01/30 06:27:14;;;;;;;2.23;1.17;;;;;;;7.22;75.85;94208.66;5030883;28;20623;-78
2021/01/30 06:29:46;;;;;;;2.73;1.00;;;;;;;7.21;75.57;94200.19;5030499;28;20199;-78
2021/01/30 06:32:25;;;;;;;3.20;1.10;;;;;;;7.23;75.29;94197.44;5031199;28;20210;-77
2021/01/30 06:35:05;;;;;;;3.93;1.30;;;;;;;7.24;75.05;94192.16;5030456;28;20205;-76
2021/01/30 06:37:38;;;;;;;3.97;1.43;;;;;;;7.30;74.79;94179.56;5030405;28;20213;-81
2021/01/30 06:40:15;;;;;;;3.40;1.27;;;;;;;7.38;74.33;94189.63;5028022;28;20218;-77
2021/01/30 06:42:43;;;;;;;2.37;1.10;;;;;;;7.45;73.99;94190.47;5028718;28;20639;-76
2021/01/30 06:45:16;;;;;;;9.20;4.83;;;;;;;7.43;73.98;94182.97;5029424;28;20194;-76
2021/01/30 06:47:48;;;;;;;2.60;1.17;;;;;;;7.40;73.91;94187.69;5028690;28;20190;-76
2021/01/30 06:50:19;;;;;;;1.83;1.07;;;;;;;7.34;73.78;94180.75;5029497;28;20214;-76
2021/01/30 06:52:45;;;;;;;1.70;1.00;;;;;;;7.33;73.32;94182.53;5029754;28;21197;-75
2021/01/30 06:55:13;;;;;;;2.53;1.17;;;;;;;7.30;73.52;94185.50;5029572;28;20633;-76
2021/01/30 06:57:48;;;;;;;2.07;1.00;;;;;;;7.28;73.58;94179.75;5030024;28;20329;-77
2021/01/30 07:00:25;;;;;;;2.80;1.30;;;;;;;7.39;73.36;94189.44;5029262;28;20218;-75
2021/01/30 07:03:03;;;;;;;2.13;1.30;;;;;;;7.47;73.42;94181.63;5029862;28;20205;-76
2021/01/30 07:05:33;;;;;;;3.37;1.07;;;;;;;7.50;72.93;94173.56;5029816;28;20253;-77
2021/01/30 07:08:26;;;;;;;3.40;1.50;;;;;;;7.53;72.46;94180.81;5030284;28;20194;-76
2021/01/30 07:11:02;;;;;;;4.97;1.40;;;;;;;7.58;72.20;94178.47;5029673;28;20213;-76
2021/01/30 07:13:42;;;;;;;1.43;1.10;;;;;;;7.61;72.16;94175.53;5029876;28;20584;-76
2021/01/30 07:16:20;;;;;;;3.47;1.40;;;;;;;7.59;71.80;94177.50;5029789;28;20242;-76
2021/01/30 07:18:57;;;;;;;2.27;1.30;;;;;;;7.60;71.89;94173.16;5029433;28;20194;-76
2021/01/30 07:21:28;;;;;;;5.47;2.50;;;;;;;7.57;71.88;94168.44;5027292;28;20214;-77
2021/01/30 07:24:08;;;;;;;3.30;1.37;;;;;;;7.53;71.65;94162.91;5029229;28;20198;-77
2021/01/30 07:26:38;;;;;;;3.00;1.63;;;;;;;7.54;71.73;94169.59;5029044;28;20194;-76
2021/01/30 07:29:08;;;;;;;4.23;1.30;;;;;;;7.57;71.43;94164.09;5029529;28;20787;-76
2021/01/30 07:31:39;;;;;;;4.00;1.57;;;;;;;7.55;71.78;94158.38;5028963;28;20214;-75
2021/01/30 07:34:15;;;;;;;3.83;1.30;;;;;;;7.51;71.08;94148.72;5029400;28;20199;-76
2021/01/30 07:36:48;;;;;;;5.27;1.60;;;;;;;7.57;71.04;94155.63;5028312;28;20198;-76
2021/01/30 07:39:28;;;;;;;3.67;1.40;;;;;;;7.66;70.73;94146.00;5029467;28;20226;-76
2021/01/30 07:41:58;;;;;;;4.73;1.40;;;;;;;7.63;70.63;94142.84;5029562;28;20213;-76
2021/01/30 07:44:29;;;;;;;2.13;1.40;;;;;;;7.53;70.32;94134.72;5029676;28;20225;-76
2021/01/30 07:47:09;;;;;;;3.33;1.30;;;;;;;7.49;70.68;94145.56;5033053;28;20213;-76
2021/01/30 07:49:39;;;;;;;7.37;3.23;;;;;;;7.53;70.43;94147.53;5032587;28;20209;-77
2021/01/30 07:52:10;;;;;;;3.63;1.50;;;;;;;7.51;71.11;94143.59;5033227;28;20190;-77
2021/01/30 07:54:45;;;;;;;2.93;1.43;;;;;;;7.50;70.69;94137.69;5032977;28;20249;-76
2021/01/30 07:57:32;;;;;;;2.47;1.17;;;;;;;7.63;70.38;94140.28;5032607;28;20198;-77
2021/01/30 08:00:06;;;;;;;8.00;1.73;;;;;;;7.82;71.53;94128.50;5031779;28;20222;-80
2021/01/30 08:03:14;;;;;;;3.73;1.50;;;;;;;7.97;70.78;94123.19;5035823;28;20584;-76
2021/01/30 08:05:51;;;;;;;4.93;1.50;;;;;;;7.92;69.98;94118.63;4992990;28;20811;-78
2021/01/30 08:08:27;;;;;;;4.63;1.47;;;;;;;8.01;69.14;94115.91;5034008;28;20575;-79
2021/01/30 08:10:58;;;;;;;4.73;1.40;;;;;;;8.03;68.90;94116.50;5034622;28;20210;-79
2021/01/30 08:13:38;;;;;;;3.87;1.20;;;;;;;7.98;68.56;94107.63;5035447;28;20193;-79
2021/01/30 08:16:13;;;;;;;3.60;1.60;;;;;;;7.98;68.27;94110.19;5033939;28;20215;-80
2021/01/30 08:18:40;;;;;;;4.07;1.37;;;;;;;7.92;68.53;94112.72;5034344;28;20189;-78
2021/01/30 08:21:20;;;;;;;4.00;1.47;;;;;;;7.98;68.79;94112.75;5034260;28;20599;-80
2021/01/30 08:23:55;;;;;;;4.20;1.43;;;;;;;7.95;69.05;94112.34;5032981;28;20218;-80
2021/01/30 08:26:27;;;;;;;5.60;1.73;;;;;;;7.94;68.52;94105.63;5034122;28;20206;-80
2021/01/30 08:29:07;;;;;;;3.30;1.30;;;;;;;7.88;68.48;94102.09;5032316;28;20202;-80
2021/01/30 08:31:35;;;;;;;2.87;1.60;;;;;;;7.93;68.34;94097.16;5034120;28;20214;-79
2021/01/30 08:34:08;;;;;;;3.50;1.50;;;;;;;7.90;68.64;94099.31;5034170;28;20198;-79
2021/01/30 08:36:38;;;;;;;3.90;1.57;;;;;;;7.87;68.29;94090.28;5034018;28;20271;-80
2021/01/30 08:39:18;;;;;;;2.97;1.37;;;;;;;7.94;68.36;94098.75;5028785;28;20223;-77
2021/01/30 08:41:47;;;;;;;4.93;1.60;;;;;;;7.83;68.21;94099.34;5030027;28;20653;-77
2021/01/30 08:44:26;;;;;;;4.50;1.43;;;;;;;7.91;68.09;94091.44;5031398;28;20214;-77
2021/01/30 08:47:06;;;;;;;3.63;1.37;;;;;;;7.96;68.25;94093.41;5030932;28;20194;-79
2021/01/30 08:49:35;;;;;;;3.73;1.40;;;;;;;8.06;68.18;94082.78;5032843;28;20198;-79
2021/01/30 08:52:21;;;;;;;8.90;4.40;;;;;;;8.14;68.05;94085.91;5030463;28;20198;-77
2021/01/30 08:54:48;;;;;;;4.63;2.10;;;;;;;8.04;67.57;94088.09;5031487;28;20194;-77
2021/01/30 08:57:42;;;;;;;6.20;2.00;;;;;;;8.12;67.72;94085.31;5030821;28;20206;-77
2021/01/30 09:00:32;;;;;;;4.03;1.30;;;;;;;8.13;67.58;94094.59;5027886;28;20242;-78
2021/01/30 09:03:00;;;;;;;4.47;1.43;;;;;;;8.10;68.24;94097.56;5025681;28;20632;-77
2021/01/30 09:05:38;;;;;;;3.77;1.50;;;;;;;8.10;67.14;94089.84;5030775;28;20206;-78
2021/01/30 09:08:44;;;;;;;5.43;1.50;;;;;;;8.19;66.72;94091.25;5030242;28;20268;-77
2021/01/30 09:11:38;;;;;;;4.23;1.40;;;;;;;8.11;67.23;94101.69;5022887;28;20222;-77
2021/01/30 09:14:08;;;;;;;4.17;1.50;;;;;;;8.17;67.26;94093.22;5026661;28;20774;-78
2021/01/30 09:16:45;;;;;;;2.67;1.30;;;;;;;8.18;67.13;94091.44;5031002;28;20580;-77
2021/01/30 09:19:23;;;;;;;3.53;1.63;;;;;;;8.32;67.00;94091.25;5030116;28;20229;-77
2021/01/30 09:21:57;;;;;;;5.27;1.50;;;;;;;8.28;66.33;94091.81;5030269;28;20233;-77
2021/01/30 09:24:39;;;;;;;4.80;1.80;;;;;;;8.25;66.61;94097.38;5030496;28;20254;-78
2021/01/30 09:27:11;;;;;;;3.40;1.50;;;;;;;8.28;66.42;94091.81;5031045;28;20209;-82
2021/01/30 09:29:40;;;;;;;5.23;1.60;;;;;;;8.33;66.75;94092.06;5029572;28;20221;-77
2021/01/30 09:32:07;;;;;;;3.27;1.53;;;;;;;8.35;66.87;94086.72;5030648;28;20212;-76
2021/01/30 09:34:42;;;;;;;4.50;1.70;;;;;;;8.45;66.91;94087.13;5017035;28;20207;-77
2021/01/30 09:37:08;;;;;;;4.37;1.70;;;;;;;8.49;66.20;94085.72;5010883;28;20229;-77
2021/01/30 09:39:37;;;;;;;4.27;1.50;;;;;;;8.51;65.95;94079.41;5010498;28;20593;-77
2021/01/30 09:42:08;;;;;;;4.10;1.97;;;;;;;8.42;65.58;94083.19;5010901;28;20210;-77
2021/01/30 09:44:35;;;;;;;2.87;1.30;;;;;;;8.44;65.99;94076.06;5010721;28;20210;-77
2021/01/30 09:47:05;;;;;;;3.77;1.63;;;;;;;8.60;65.96;94074.84;5010532;28;20199;-77
2021/01/30 09:49:34;;;;;;;2.40;1.43;;;;;;;8.64;65.55;94076.81;5010432;28;20199;-75
2021/01/30 09:52:00;;;;;;;4.83;1.67;;;;;;;8.74;65.12;94076.38;5010470;28;20402;-77
2021/01/30 09:54:29;;;;;;;5.93;1.40;;;;;;;8.82;64.71;94081.31;5010452;28;20713;-77
2021/01/30 09:57:06;;;;;;;3.77;1.33;;;;;;;8.93;64.38;94079.88;5010268;28;20229;-78
2021/01/30 09:59:33;;;;;;;10.87;5.60;;;;;;;9.00;63.84;94085.78;5009676;28;20230;-77
2021/01/30 10:02:12;;;;;;;4.47;1.90;;;;;;;9.12;63.73;94078.22;5009913;28;20669;-78
2021/01/30 10:04:38;;;;;;;4.63;1.67;;;;;;;9.24;63.54;94084.28;5010873;28;20203;-77
2021/01/30 10:07:09;;;;;;;3.37;1.67;;;;;;;9.19;62.44;94084.13;5010997;28;20551;-77
2021/01/30 10:09:40;;;;;;;3.93;1.67;;;;;;;9.30;62.31;94084.25;5010324;28;20213;-76
2021/01/30 10:12:07;;;;;;;2.67;1.23;;;;;;;9.52;62.99;94076.25;5011321;28;20278;-77
2021/01/30 10:14:37;;;;;;;4.50;1.67;;;;;;;9.73;61.93;94069.97;5010686;28;20203;-77
2021/01/30 10:17:05;;;;;;;3.87;1.50;;;;;;;9.86;61.33;94062.97;5010853;28;20199;-78
2021/01/30 10:19:33;;;;;;;4.20;1.50;;;;;;;9.98;61.20;94060.50;5009314;28;20298;-77
2021/01/30 10:22:11;;;;;;;3.17;1.63;;;;;;;10.13;60.16;94048.13;5010399;28;20206;-77
2021/01/30 10:24:37;;;;;;;3.87;1.33;;;;;;;10.36;58.96;94050.13;5010428;28;20210;-77
2021/01/30 10:27:14;;;;;;;4.67;1.50;;;;;;;10.39;57.91;94044.56;5010797;28;20203;-78
2021/01/30 10:29:41;;;;;;;3.53;1.37;;;;;;;10.54;57.70;94036.50;5009748;28;20580;-77
2021/01/30 10:32:12;;;;;;;5.93;1.70;;;;;;;10.77;57.74;94034.06;5011240;28;20221;-79
2021/01/30 10:34:41;;;;;;;2.77;1.77;;;;;;;10.75;56.66;94032.69;5025354;28;20228;-77
2021/01/30 10:37:13;;;;;;;3.70;1.53;;;;;;;10.90;56.26;94021.03;5030028;28;20253;-77
2021/01/30 10:39:45;;;;;;;3.20;1.60;;;;;;;10.96;55.78;94027.91;5029146;28;20225;-78
2021/01/30 10:42:17;;;;;;;2.27;1.27;;;;;;;10.92;55.22;94015.66;5030082;28;20198;-77
2021/01/30 10:44:49;;;;;;;4.07;1.43;;;;;;;10.93;55.10;94010.31;5032176;28;20198;-79
2021/01/30 10:47:15;;;;;;;6.70;1.60;;;;;;;10.98;54.63;94015.56;5030314;28;20206;-77
2021/01/30 10:49:44;;;;;;;4.90;1.80;;;;;;;11.13;54.18;94012.63;5028912;28;20591;-77
2021/01/30 10:52:13;;;;;;;10.43;7.73;;;;;;;11.08;54.10;94013.28;5030711;28;20241;-77
2021/01/30 10:54:43;;;;;;;4.83;2.50;;;;;;;11.20;54.78;94013.31;5029394;28;20273;-80
2021/01/30 10:57:26;;;;;;;3.87;1.20;;;;;;;11.10;53.95;94010.47;5030058;28;20198;-77
2021/01/30 10:59:59;;;;;;;3.33;1.43;;;;;;;11.02;53.71;94006.41;5025167;28;20221;-77
2021/01/30 11:02:50;;;;;;;3.87;1.60;;;;;;;11.08;54.17;94002.97;5028909;28;20213;-78
2021/01/30 11:05:29;;;;;;;3.70;1.40;;;;;;;11.07;54.40;94005.75;5030135;28;20209;-77
2021/01/30 11:08:00;;;;;;;2.30;1.10;;;;;;;11.07;54.81;94009.13;5028735;28;20724;-78
2021/01/30 11:10:37;;;;;;;18.07;12.40;;;;;;;11.20;55.04;94004.78;5028115;28;20836;-77
2021/01/30 11:13:10;;;;;;;5.03;2.97;;;;;;;11.21;54.59;94001.22;5028767;28;20197;-77
2021/01/30 11:15:41;;;;;;;4.20;1.70;;;;;;;11.17;54.61;93998.28;5029103;28;20213;-77
2021/01/30 11:18:42;;;;;;;3.47;1.70;;;;;;;11.21;54.22;93993.50;5029542;28;20624;-78
2021/01/30 11:21:11;;;;;;;3.57;1.50;;;;;;;10.98;54.19;93989.81;4949001;28;20239;-77
2021/01/30 11:23:48;;;;;;;3.60;1.60;;;;;;;10.85;55.08;93992.56;5017642;28;20233;-77
2021/01/30 11:26:34;;;;;;;3.93;1.43;;;;;;;10.64;54.29;93998.94;5033450;28;20720;-77
2021/01/30 11:29:03;;;;;;;8.23;2.00;;;;;;;10.54;55.37;93988.38;5032690;28;20757;-77
2021/01/30 11:31:47;;;;;;;5.50;1.77;;;;;;;10.40;56.57;93994.66;5032605;28;20225;-77
2021/01/30 11:34:13;;;;;;;5.33;1.70;;;;;;;10.46;57.02;93988.66;5022032;28;20827;-77
2021/01/30 11:36:39;;;;;;;4.10;1.80;;;;;;;10.37;56.77;93995.09;5018872;28;20198;-77
2021/01/30 11:39:06;;;;;;;7.43;1.83;;;;;;;10.42;56.96;93991.88;5034066;28;20198;-77
2021/01/30 11:41:32;;;;;;;4.90;1.50;;;;;;;10.30;56.64;93984.88;5032298;28;20218;-77
2021/01/30 11:43:58;;;;;;;5.87;1.80;;;;;;;10.23;56.35;93993.66;5032910;28;20680;-77
2021/01/30 11:46:23;;;;;;;3.87;1.47;;;;;;;10.31;56.28;93983.09;5032742;28;20202;-77
2021/01/30 11:48:50;;;;;;;4.30;1.73;;;;;;;10.36;57.38;93980.66;5032509;28;20673;-76
2021/01/30 11:51:22;;;;;;;2.83;1.20;;;;;;;10.47;56.28;93985.09;5031846;28;20218;-77
2021/01/30 11:53:48;;;;;;;3.20;1.40;;;;;;;10.38;55.54;93978.69;5032259;28;20633;-77
2021/01/30 11:56:14;;;;;;;2.53;1.27;;;;;;;10.28;55.53;93973.22;5032708;28;20194;-77
2021/01/30 11:58:40;;;;;;;3.57;1.40;;;;;;;10.17;56.14;93977.28;5032573;28;20206;-77
2021/01/30 12:01:07;;;;;;;3.13;1.40;;;;;;;10.17;56.47;93972.13;5031650;28;20240;-77
2021/01/30 12:03:33;;;;;;;3.17;1.50;;;;;;;10.11;56.11;93967.81;5032697;28;20199;-77